sensor_id;sensor_type;location;lat;lon;timestamp;pressure;altitude;pressure_sealevel;temperature;humidity
69630;BME280;56857;52.212;5.496;2023-11-18T00:00:10;102466.44;;;5.21;100.00
69630;BME280;56857;52.212;5.496;2023-11-18T00:02:36;102467.34;;;5.20;100.00
69630;BME280;56857;52.212;5.496;2023-11-18T00:05:01;102470.09;;;5.18;100.00
69630;BME280;56857;52.212;5.496;2023-11-18T00:07:26;102469.34;;;5.16;100.00
69630;BME280;56857;52.212;5.496;2023-11-18T00:09:52;102470.28;;;5.15;100.00
69630;BME280;56857;52.212;5.496;2023-11-18T00:12:17;102473.94;;;5.13;100.00
69630;BME280;56857;52.212;5.496;2023-11-18T00:14:42;102465.22;;;5.12;100.00
69630;BME280;56857;52.212;5.496;2023-11-18T00:17:07;102464.38;;;5.11;100.00
69630;BME280;56857;52.212;5.496;2023-11-18T00:19:33;102469.63;;;5.11;100.00
69630;BME280;56857;52.212;5.496;2023-11-18T00:21:58;102468.78;;;5.11;100.00
69630;BME280;56857;52.212;5.496;2023-11-18T00:24:23;102473.19;;;5.10;100.00
69630;BME280;56857;52.212;5.496;2023-11-18T00:26:49;102473.38;;;5.07;100.00
69630;BME280;56857;52.212;5.496;2023-11-18T00:29:14;102469.91;;;5.07;100.00
69630;BME280;56857;52.212;5.496;2023-11-18T00:31:39;102465.47;;;5.07;100.00
69630;BME280;56857;52.212;5.496;2023-11-18T00:34:05;102463.63;;;5.09;100.00
69630;BME280;56857;52.212;5.496;2023-11-18T00:36:30;102458.34;;;5.09;100.00
69630;BME280;56857;52.212;5.496;2023-11-18T00:38:55;102451.41;;;5.08;100.00
69630;BME280;56857;52.212;5.496;2023-11-18T00:41:20;102450.56;;;5.08;100.00
69630;BME280;56857;52.212;5.496;2023-11-18T00:43:46;102454.88;;;5.09;100.00
69630;BME280;56857;52.212;5.496;2023-11-18T00:46:11;102457.69;;;5.06;100.00
69630;BME280;56857;52.212;5.496;2023-11-18T00:48:37;102455.25;;;5.03;100.00
69630;BME280;56857;52.212;5.496;2023-11-18T00:51:02;102454.31;;;5.04;100.00
69630;BME280;56857;52.212;5.496;2023-11-18T00:53:27;102459.56;;;5.04;100.00
69630;BME280;56857;52.212;5.496;2023-11-18T00:55:53;102464.94;;;5.02;100.00
69630;BME280;56857;52.212;5.496;2023-11-18T00:58:18;102477.13;;;5.03;100.00
69630;BME280;56857;52.212;5.496;2023-11-18T01:00:43;102487.63;;;5.03;100.00
69630;BME280;56857;52.212;5.496;2023-11-18T01:03:09;102479.75;;;5.03;100.00
69630;BME280;56857;52.212;5.496;2023-11-18T01:05:34;102482.38;;;5.03;100.00
69630;BME280;56857;52.212;5.496;2023-11-18T01:07:59;102479.94;;;5.00;100.00
69630;BME280;56857;52.212;5.496;2023-11-18T01:10:25;102485.31;;;4.99;100.00
69630;BME280;56857;52.212;5.496;2023-11-18T01:12:50;102494.09;;;4.98;100.00
69630;BME280;56857;52.212;5.496;2023-11-18T01:15:15;102489.78;;;4.97;100.00
69630;BME280;56857;52.212;5.496;2023-11-18T01:17:40;102479.38;;;4.95;100.00
69630;BME280;56857;52.212;5.496;2023-11-18T01:20:07;102482.03;;;4.95;100.00
69630;BME280;56857;52.212;5.496;2023-11-18T01:22:32;102485.38;;;4.97;100.00
69630;BME280;56857;52.212;5.496;2023-11-18T01:24:58;102489.72;;;4.98;100.00
69630;BME280;56857;52.212;5.496;2023-11-18T01:27:23;102490.56;;;4.99;100.00
69630;BME280;56857;52.212;5.496;2023-11-18T01:29:49;102489.63;;;5.00;100.00
69630;BME280;56857;52.212;5.496;2023-11-18T01:32:14;102495.72;;;5.00;100.00
69630;BME280;56857;52.212;5.496;2023-11-18T01:34:39;102497.31;;;5.03;100.00
69630;BME280;56857;52.212;5.496;2023-11-18T01:37:06;102498.06;;;5.05;100.00
69630;BME280;56857;52.212;5.496;2023-11-18T01:39:37;102497.91;;;5.08;100.00
69630;BME280;56857;52.212;5.496;2023-11-18T01:42:04;102496.09;;;5.08;100.00
69630;BME280;56857;52.212;5.496;2023-11-18T01:44:30;102482.00;;;5.09;100.00
69630;BME280;56857;52.212;5.496;2023-11-18T01:46:57;102488.94;;;5.10;100.00
69630;BME280;56857;52.212;5.496;2023-11-18T01:49:23;102481.06;;;5.10;100.00
69630;BME280;56857;52.212;5.496;2023-11-18T01:51:50;102470.47;;;5.12;100.00
69630;BME280;56857;52.212;5.496;2023-11-18T01:54:16;102467.91;;;5.10;100.00
69630;BME280;56857;52.212;5.496;2023-11-18T01:56:46;102474.97;;;5.10;100.00
69630;BME280;56857;52.212;5.496;2023-11-18T01:59:12;102477.53;;;5.11;100.00
69630;BME280;56857;52.212;5.496;2023-11-18T02:01:38;102459.31;;;5.08;100.00
69630;BME280;56857;52.212;5.496;2023-11-18T02:04:04;102460.97;;;5.09;100.00
69630;BME280;56857;52.212;5.496;2023-11-18T02:06:29;102471.59;;;5.08;100.00
69630;BME280;56857;52.212;5.496;2023-11-18T02:08:54;102474.22;;;5.08;100.00
69630;BME280;56857;52.212;5.496;2023-11-18T02:11:26;102477.72;;;5.08;100.00
69630;BME280;56857;52.212;5.496;2023-11-18T02:13:53;102475.06;;;5.08;100.00
69630;BME280;56857;52.212;5.496;2023-11-18T02:16:20;102485.59;;;5.08;100.00
69630;BME280;56857;52.212;5.496;2023-11-18T02:18:47;102483.03;;;5.07;100.00
69630;BME280;56857;52.212;5.496;2023-11-18T02:21:13;102474.13;;;5.09;100.00
69630;BME280;56857;52.212;5.496;2023-11-18T02:23:40;102481.94;;;5.11;100.00
69630;BME280;56857;52.212;5.496;2023-11-18T02:26:05;102485.41;;;5.11;100.00
69630;BME280;56857;52.212;5.496;2023-11-18T02:28:31;102484.47;;;5.13;100.00
69630;BME280;56857;52.212;5.496;2023-11-18T02:31:09;102474.97;;;5.10;100.00
69630;BME280;56857;52.212;5.496;2023-11-18T02:33:55;102480.34;;;5.08;100.00
69630;BME280;56857;52.212;5.496;2023-11-18T02:36:31;102482.97;;;5.08;100.00
69630;BME280;56857;52.212;5.496;2023-11-18T02:38:58;102475.06;;;5.08;100.00
69630;BME280;56857;52.212;5.496;2023-11-18T02:41:25;102469.91;;;5.07;100.00
69630;BME280;56857;52.212;5.496;2023-11-18T02:43:52;102468.22;;;5.06;100.00
69630;BME280;56857;52.212;5.496;2023-11-18T02:46:18;102470.00;;;5.05;100.00
69630;BME280;56857;52.212;5.496;2023-11-18T02:48:43;102478.84;;;5.04;100.00
69630;BME280;56857;52.212;5.496;2023-11-18T02:51:08;102467.56;;;5.02;100.00
69630;BME280;56857;52.212;5.496;2023-11-18T02:53:34;102469.16;;;5.05;100.00
69630;BME280;56857;52.212;5.496;2023-11-18T02:55:59;102456.03;;;5.05;100.00
69630;BME280;56857;52.212;5.496;2023-11-18T02:58:25;102449.06;;;5.04;100.00
69630;BME280;56857;52.212;5.496;2023-11-18T03:00:50;102448.22;;;5.03;100.00
69630;BME280;56857;52.212;5.496;2023-11-18T03:03:15;102450.84;;;5.03;100.00
69630;BME280;56857;52.212;5.496;2023-11-18T03:05:41;102442.88;;;5.05;100.00
69630;BME280;56857;52.212;5.496;2023-11-18T03:08:06;102450.78;;;5.05;100.00
69630;BME280;56857;52.212;5.496;2023-11-18T03:10:32;102448.97;;;5.05;100.00
69630;BME280;56857;52.212;5.496;2023-11-18T03:12:57;102452.44;;;5.06;100.00
69630;BME280;56857;52.212;5.496;2023-11-18T03:15:23;102450.66;;;5.06;100.00
69630;BME280;56857;52.212;5.496;2023-11-18T03:17:49;102454.06;;;5.08;100.00
69630;BME280;56857;52.212;5.496;2023-11-18T03:20:18;102457.53;;;5.09;100.00
69630;BME280;56857;52.212;5.496;2023-11-18T03:22:44;102445.31;;;5.08;100.00
69630;BME280;56857;52.212;5.496;2023-11-18T03:25:09;102445.41;;;5.06;100.00
69630;BME280;56857;52.212;5.496;2023-11-18T03:27:35;102444.56;;;5.06;100.00
69630;BME280;56857;52.212;5.496;2023-11-18T03:30:00;102434.16;;;5.04;100.00
69630;BME280;56857;52.212;5.496;2023-11-18T03:32:25;102433.28;;;5.04;100.00
69630;BME280;56857;52.212;5.496;2023-11-18T03:34:50;102428.13;;;5.02;100.00
69630;BME280;56857;52.212;5.496;2023-11-18T03:37:16;102431.72;;;5.01;100.00
69630;BME280;56857;52.212;5.496;2023-11-18T03:39:41;102431.72;;;5.01;100.00
69630;BME280;56857;52.212;5.496;2023-11-18T03:42:06;102429.16;;;5.00;100.00
69630;BME280;56857;52.212;5.496;2023-11-18T03:44:32;102419.59;;;4.99;100.00
69630;BME280;56857;52.212;5.496;2023-11-18T03:46:57;102420.44;;;4.99;100.00
69630;BME280;56857;52.212;5.496;2023-11-18T03:49:22;102413.41;;;5.00;100.00
69630;BME280;56857;52.212;5.496;2023-11-18T03:51:48;102409.94;;;4.99;100.00
69630;BME280;56857;52.212;5.496;2023-11-18T03:54:13;102403.84;;;4.99;100.00
69630;BME280;56857;52.212;5.496;2023-11-18T03:56:38;102401.22;;;4.99;100.00
69630;BME280;56857;52.212;5.496;2023-11-18T03:59:04;102395.94;;;4.99;100.00
69630;BME280;56857;52.212;5.496;2023-11-18T04:01:29;102391.53;;;4.99;100.00
69630;BME280;56857;52.212;5.496;2023-11-18T04:03:54;102384.69;;;4.97;100.00
69630;BME280;56857;52.212;5.496;2023-11-18T04:06:20;102372.50;;;4.96;100.00
69630;BME280;56857;52.212;5.496;2023-11-18T04:08:46;102370.78;;;4.95;100.00
69630;BME280;56857;52.212;5.496;2023-11-18T04:11:12;102357.56;;;4.96;100.00
69630;BME280;56857;52.212;5.496;2023-11-18T04:13:37;102356.72;;;4.96;100.00
69630;BME280;56857;52.212;5.496;2023-11-18T04:16:02;102362.91;;;4.95;100.00
69630;BME280;56857;52.212;5.496;2023-11-18T04:18:28;102369.09;;;4.94;100.00
69630;BME280;56857;52.212;5.496;2023-11-18T04:20:53;102374.47;;;4.92;100.00
69630;BME280;56857;52.212;5.496;2023-11-18T04:23:18;102362.16;;;4.93;100.00
69630;BME280;56857;52.212;5.496;2023-11-18T04:25:44;102353.34;;;4.94;100.00
69630;BME280;56857;52.212;5.496;2023-11-18T04:28:09;102349.88;;;4.93;100.00
69630;BME280;56857;52.212;5.496;2023-11-18T04:30:34;102340.31;;;4.92;100.00
69630;BME280;56857;52.212;5.496;2023-11-18T04:33:00;102344.59;;;4.93;100.00
69630;BME280;56857;52.212;5.496;2023-11-18T04:35:25;102336.72;;;4.93;100.00
69630;BME280;56857;52.212;5.496;2023-11-18T04:37:50;102328.00;;;4.93;100.00
69630;BME280;56857;52.212;5.496;2023-11-18T04:40:16;102326.22;;;4.93;100.00
69630;BME280;56857;52.212;5.496;2023-11-18T04:42:41;102324.44;;;4.94;100.00
69630;BME280;56857;52.212;5.496;2023-11-18T04:45:07;102327.91;;;4.94;100.00
69630;BME280;56857;52.212;5.496;2023-11-18T04:47:32;102328.84;;;4.93;100.00
69630;BME280;56857;52.212;5.496;2023-11-18T04:49:58;102320.97;;;4.93;100.00
69630;BME280;56857;52.212;5.496;2023-11-18T04:52:23;102329.59;;;4.95;100.00
69630;BME280;56857;52.212;5.496;2023-11-18T04:54:48;102324.34;;;4.95;100.00
69630;BME280;56857;52.212;5.496;2023-11-18T04:57:14;102314.69;;;4.96;100.00
69630;BME280;56857;52.212;5.496;2023-11-18T04:59:39;102319.81;;;4.97;100.00
69630;BME280;56857;52.212;5.496;2023-11-18T05:02:05;102321.41;;;5.00;100.00
69630;BME280;56857;52.212;5.496;2023-11-18T05:04:30;102308.28;;;5.00;100.00
69630;BME280;56857;52.212;5.496;2023-11-18T05:06:55;102309.94;;;5.01;100.00
69630;BME280;56857;52.212;5.496;2023-11-18T05:09:20;102323.09;;;5.01;100.00
69630;BME280;56857;52.212;5.496;2023-11-18T05:11:46;102328.34;;;5.01;100.00
69630;BME280;56857;52.212;5.496;2023-11-18T05:14:11;102322.16;;;5.02;100.00
69630;BME280;56857;52.212;5.496;2023-11-18T05:16:36;102323.09;;;5.01;100.00
69630;BME280;56857;52.212;5.496;2023-11-18T05:19:02;102318.72;;;5.01;100.00
69630;BME280;56857;52.212;5.496;2023-11-18T05:21:27;102314.28;;;5.02;100.00
69630;BME280;56857;52.212;5.496;2023-11-18T05:23:52;102309.88;;;5.02;100.00
69630;BME280;56857;52.212;5.496;2023-11-18T05:26:18;102308.09;;;5.03;100.00
69630;BME280;56857;52.212;5.496;2023-11-18T05:28:43;102298.31;;;5.05;100.00
69630;BME280;56857;52.212;5.496;2023-11-18T05:31:08;102299.16;;;5.05;100.00
69630;BME280;56857;52.212;5.496;2023-11-18T05:33:34;102295.59;;;5.06;100.00
69630;BME280;56857;52.212;5.496;2023-11-18T05:35:59;102298.31;;;5.05;100.00
69630;BME280;56857;52.212;5.496;2023-11-18T05:38:24;102301.88;;;5.04;100.00
69630;BME280;56857;52.212;5.496;2023-11-18T05:40:50;102296.63;;;5.04;100.00
69630;BME280;56857;52.212;5.496;2023-11-18T05:43:15;102294.94;;;5.03;100.00
69630;BME280;56857;52.212;5.496;2023-11-18T05:45:40;102299.25;;;5.04;100.00
69630;BME280;56857;52.212;5.496;2023-11-18T05:48:06;102292.22;;;5.04;100.00
69630;BME280;56857;52.212;5.496;2023-11-18T05:50:31;102285.19;;;5.05;100.00
69630;BME280;56857;52.212;5.496;2023-11-18T05:52:56;102295.69;;;5.05;100.00
69630;BME280;56857;52.212;5.496;2023-11-18T05:55:22;102286.97;;;5.04;100.00
69630;BME280;56857;52.212;5.496;2023-11-18T05:57:47;102277.28;;;5.05;100.00
69630;BME280;56857;52.212;5.496;2023-11-18T06:00:13;102267.63;;;5.05;100.00
69630;BME280;56857;52.212;5.496;2023-11-18T06:02:39;102265.72;;;5.07;100.00
69630;BME280;56857;52.212;5.496;2023-11-18T06:05:05;102264.03;;;5.06;100.00
69630;BME280;56857;52.212;5.496;2023-11-18T06:07:30;102260.56;;;5.06;100.00
69630;BME280;56857;52.212;5.496;2023-11-18T06:09:55;102271.94;;;5.06;100.00
69630;BME280;56857;52.212;5.496;2023-11-18T06:12:21;102272.88;;;5.05;100.00
69630;BME280;56857;52.212;5.496;2023-11-18T06:14:46;102257.94;;;5.06;100.00
69630;BME280;56857;52.212;5.496;2023-11-18T06:17:11;102255.31;;;5.06;100.00
69630;BME280;56857;52.212;5.496;2023-11-18T06:19:37;102257.19;;;5.04;100.00
69630;BME280;56857;52.212;5.496;2023-11-18T06:22:02;102255.44;;;5.04;100.00
69630;BME280;56857;52.212;5.496;2023-11-18T06:24:27;102256.34;;;5.03;100.00
69630;BME280;56857;52.212;5.496;2023-11-18T06:26:53;102263.31;;;5.04;100.00
69630;BME280;56857;52.212;5.496;2023-11-18T06:29:18;102268.47;;;5.06;100.00
69630;BME280;56857;52.212;5.496;2023-11-18T06:31:43;102251.75;;;5.07;100.00
69630;BME280;56857;52.212;5.496;2023-11-18T06:34:09;102255.97;;;5.09;100.00
69630;BME280;56857;52.212;5.496;2023-11-18T06:36:34;102236.72;;;5.09;100.00
69630;BME280;56857;52.212;5.496;2023-11-18T06:38:59;102236.81;;;5.07;100.00
69630;BME280;56857;52.212;5.496;2023-11-18T06:41:25;102236.72;;;5.09;100.00
69630;BME280;56857;52.212;5.496;2023-11-18T06:43:50;102240.31;;;5.08;100.00
69630;BME280;56857;52.212;5.496;2023-11-18T06:46:15;102258.59;;;5.09;100.00
69630;BME280;56857;52.212;5.496;2023-11-18T06:48:41;102265.72;;;5.07;100.00
69630;BME280;56857;52.212;5.496;2023-11-18T06:51:06;102264.81;;;5.08;100.00
69630;BME280;56857;52.212;5.496;2023-11-18T06:53:31;102254.19;;;5.10;100.00
69630;BME280;56857;52.212;5.496;2023-11-18T06:55:57;102255.13;;;5.09;100.00
69630;BME280;56857;52.212;5.496;2023-11-18T06:58:22;102260.28;;;5.10;100.00
69630;BME280;56857;52.212;5.496;2023-11-18T07:00:47;102269.84;;;5.11;100.00
69630;BME280;56857;52.212;5.496;2023-11-18T07:03:13;102274.28;;;5.11;100.00
69630;BME280;56857;52.212;5.496;2023-11-18T07:05:38;102272.28;;;5.15;100.00
69630;BME280;56857;52.212;5.496;2023-11-18T07:08:03;102272.28;;;5.15;100.00
69630;BME280;56857;52.212;5.496;2023-11-18T07:10:29;102266.19;;;5.14;100.00
69630;BME280;56857;52.212;5.496;2023-11-18T07:12:54;102264.41;;;5.15;100.00
69630;BME280;56857;52.212;5.496;2023-11-18T07:15:19;102274.81;;;5.16;100.00
69630;BME280;56857;52.212;5.496;2023-11-18T07:17:45;102271.25;;;5.17;100.00
69630;BME280;56857;52.212;5.496;2023-11-18T07:20:10;102273.78;;;5.19;100.00
69630;BME280;56857;52.212;5.496;2023-11-18T07:22:36;102275.44;;;5.20;100.00
69630;BME280;56857;52.212;5.496;2023-11-18T07:25:01;102271.13;;;5.19;100.00
69630;BME280;56857;52.212;5.496;2023-11-18T07:27:27;102273.69;;;5.20;100.00
69630;BME280;56857;52.212;5.496;2023-11-18T07:29:52;102267.69;;;5.18;100.00
69630;BME280;56857;52.212;5.496;2023-11-18T07:32:17;102269.34;;;5.19;100.00
69630;BME280;56857;52.212;5.496;2023-11-18T07:34:43;102264.00;;;5.21;100.00
69630;BME280;56857;52.212;5.496;2023-11-18T07:37:08;102267.38;;;5.23;100.00
69630;BME280;56857;52.212;5.496;2023-11-18T07:39:34;102267.38;;;5.23;100.00
69630;BME280;56857;52.212;5.496;2023-11-18T07:41:59;102276.19;;;5.22;100.00
69630;BME280;56857;52.212;5.496;2023-11-18T07:44:24;102264.72;;;5.23;100.00
69630;BME280;56857;52.212;5.496;2023-11-18T07:46:50;102267.38;;;5.23;100.00
69630;BME280;56857;52.212;5.496;2023-11-18T07:49:15;102261.19;;;5.24;100.00
69630;BME280;56857;52.212;5.496;2023-11-18T07:51:40;102261.00;;;5.27;100.00
69630;BME280;56857;52.212;5.496;2023-11-18T07:54:06;102247.09;;;5.25;100.00
69630;BME280;56857;52.212;5.496;2023-11-18T07:56:31;102260.22;;;5.25;100.00
69630;BME280;56857;52.212;5.496;2023-11-18T07:58:56;102244.34;;;5.26;100.00
69630;BME280;56857;52.212;5.496;2023-11-18T08:01:22;102239.00;;;5.28;100.00
69630;BME280;56857;52.212;5.496;2023-11-18T08:03:47;102233.94;;;5.25;100.00
69630;BME280;56857;52.212;5.496;2023-11-18T08:06:12;102229.63;;;5.24;100.00
69630;BME280;56857;52.212;5.496;2023-11-18T08:08:37;102226.06;;;5.25;100.00
69630;BME280;56857;52.212;5.496;2023-11-18T08:11:04;102236.56;;;5.25;100.00
69630;BME280;56857;52.212;5.496;2023-11-18T08:13:29;102225.94;;;5.26;100.00
69630;BME280;56857;52.212;5.496;2023-11-18T08:15:55;102214.50;;;5.27;100.00
69630;BME280;56857;52.212;5.496;2023-11-18T08:18:20;102217.13;;;5.27;100.00
69630;BME280;56857;52.212;5.496;2023-11-18T08:20:46;102214.38;;;5.29;100.00
69630;BME280;56857;52.212;5.496;2023-11-18T08:23:11;102209.13;;;5.29;100.00
69630;BME280;56857;52.212;5.496;2023-11-18T08:25:36;102209.88;;;5.31;100.00
69630;BME280;56857;52.212;5.496;2023-11-18T08:28:02;102215.03;;;5.32;100.00
69630;BME280;56857;52.212;5.496;2023-11-18T08:30:27;102209.75;;;5.32;100.00
69630;BME280;56857;52.212;5.496;2023-11-18T08:32:53;102210.50;;;5.34;100.00
69630;BME280;56857;52.212;5.496;2023-11-18T08:35:18;102202.41;;;5.38;100.00
69630;BME280;56857;52.212;5.496;2023-11-18T08:37:44;102192.66;;;5.40;100.00
69630;BME280;56857;52.212;5.496;2023-11-18T08:40:10;102192.66;;;5.40;100.00
69630;BME280;56857;52.212;5.496;2023-11-18T08:42:35;102196.84;;;5.42;100.00
69630;BME280;56857;52.212;5.496;2023-11-18T08:45:00;102193.28;;;5.43;100.00
69630;BME280;56857;52.212;5.496;2023-11-18T08:47:29;102188.03;;;5.43;100.00
69630;BME280;56857;52.212;5.496;2023-11-18T08:49:54;102178.22;;;5.45;100.00
69630;BME280;56857;52.212;5.496;2023-11-18T08:52:19;102180.66;;;5.48;100.00
69630;BME280;56857;52.212;5.496;2023-11-18T08:54:44;102180.44;;;5.51;100.00
69630;BME280;56857;52.212;5.496;2023-11-18T08:57:10;102179.53;;;5.52;100.00
69630;BME280;56857;52.212;5.496;2023-11-18T08:59:35;102175.84;;;5.55;100.00
69630;BME280;56857;52.212;5.496;2023-11-18T09:02:00;102179.41;;;5.54;100.00
69630;BME280;56857;52.212;5.496;2023-11-18T09:04:26;102167.84;;;5.56;100.00
69630;BME280;56857;52.212;5.496;2023-11-18T09:06:51;102160.69;;;5.58;100.00
69630;BME280;56857;52.212;5.496;2023-11-18T09:09:17;102149.97;;;5.62;100.00
69630;BME280;56857;52.212;5.496;2023-11-18T09:11:42;102148.81;;;5.66;100.00
69630;BME280;56857;52.212;5.496;2023-11-18T09:14:07;102142.50;;;5.68;100.00
69630;BME280;56857;52.212;5.496;2023-11-18T09:16:33;102137.09;;;5.70;100.00
69630;BME280;56857;52.212;5.496;2023-11-18T09:18:58;102137.94;;;5.70;100.00
69630;BME280;56857;52.212;5.496;2023-11-18T09:21:23;102126.28;;;5.74;100.00
69630;BME280;56857;52.212;5.496;2023-11-18T09:23:48;102110.38;;;5.76;100.00
69630;BME280;56857;52.212;5.496;2023-11-18T09:26:14;102113.63;;;5.79;100.00
69630;BME280;56857;52.212;5.496;2023-11-18T09:28:40;102109.19;;;5.80;100.00
69630;BME280;56857;52.212;5.496;2023-11-18T09:31:06;102103.72;;;5.83;100.00
69630;BME280;56857;52.212;5.496;2023-11-18T09:33:33;102099.34;;;5.84;100.00
69630;BME280;56857;52.212;5.496;2023-11-18T09:36:06;102096.56;;;5.85;100.00
69630;BME280;56857;52.212;5.496;2023-11-18T09:38:36;102101.75;;;5.87;100.00
69630;BME280;56857;52.212;5.496;2023-11-18T09:41:04;102085.00;;;5.88;100.00
69630;BME280;56857;52.212;5.496;2023-11-18T09:43:33;102076.16;;;5.89;100.00
69630;BME280;56857;52.212;5.496;2023-11-18T09:46:06;102062.06;;;5.90;100.00
69630;BME280;56857;52.212;5.496;2023-11-18T09:48:32;102061.19;;;5.89;100.00
69630;BME280;56857;52.212;5.496;2023-11-18T09:51:00;102063.81;;;5.89;100.00
69630;BME280;56857;52.212;5.496;2023-11-18T09:53:26;102058.56;;;5.89;100.00
69630;BME280;56857;52.212;5.496;2023-11-18T09:55:57;102054.03;;;5.91;100.00
69630;BME280;56857;52.212;5.496;2023-11-18T09:58:25;102052.47;;;5.89;100.00
69630;BME280;56857;52.212;5.496;2023-11-18T10:00:58;102065.63;;;5.89;100.00
69630;BME280;56857;52.212;5.496;2023-11-18T10:03:24;102073.41;;;5.90;100.00
69630;BME280;56857;52.212;5.496;2023-11-18T10:05:51;102065.53;;;5.90;100.00
69630;BME280;56857;52.212;5.496;2023-11-18T10:08:16;102067.31;;;5.90;100.00
69630;BME280;56857;52.212;5.496;2023-11-18T10:10:44;102083.13;;;5.90;100.00
69630;BME280;56857;52.212;5.496;2023-11-18T10:13:10;102078.69;;;5.90;100.00
69630;BME280;56857;52.212;5.496;2023-11-18T10:15:35;102080.34;;;5.91;100.00
69630;BME280;56857;52.212;5.496;2023-11-18T10:18:02;102078.56;;;5.92;100.00
69630;BME280;56857;52.212;5.496;2023-11-18T10:20:43;102081.31;;;5.90;100.00
69630;BME280;56857;52.212;5.496;2023-11-18T10:23:09;102077.66;;;5.93;100.00
69630;BME280;56857;52.212;5.496;2023-11-18T10:25:34;102060.13;;;5.92;100.00
69630;BME280;56857;52.212;5.496;2023-11-18T10:28:01;102054.88;;;5.92;100.00
69630;BME280;56857;52.212;5.496;2023-11-18T10:30:26;102045.97;;;5.94;100.00
69630;BME280;56857;52.212;5.496;2023-11-18T10:32:59;102049.44;;;5.95;100.00
69630;BME280;56857;52.212;5.496;2023-11-18T10:35:24;102044.16;;;5.95;100.00
69630;BME280;56857;52.212;5.496;2023-11-18T10:37:50;102045.00;;;5.95;100.00
69630;BME280;56857;52.212;5.496;2023-11-18T10:40:16;102048.38;;;5.97;100.00
69630;BME280;56857;52.212;5.496;2023-11-18T10:42:41;102034.16;;;6.00;100.00
69630;BME280;56857;52.212;5.496;2023-11-18T10:45:07;102022.06;;;5.97;100.00
69630;BME280;56857;52.212;5.496;2023-11-18T10:47:33;102022.78;;;5.99;100.00
69630;BME280;56857;52.212;5.496;2023-11-18T10:49:59;102010.56;;;5.98;100.00
69630;BME280;56857;52.212;5.496;2023-11-18T10:52:24;102006.66;;;6.04;100.00
69630;BME280;56857;52.212;5.496;2023-11-18T10:54:51;102009.41;;;6.02;100.00
69630;BME280;56857;52.212;5.496;2023-11-18T10:57:16;102003.41;;;6.00;100.00
69630;BME280;56857;52.212;5.496;2023-11-18T11:00:02;101992.97;;;5.99;100.00
69630;BME280;56857;52.212;5.496;2023-11-18T11:02:31;101998.00;;;6.02;100.00
69630;BME280;56857;52.212;5.496;2023-11-18T11:04:56;101989.28;;;6.01;100.00
69630;BME280;56857;52.212;5.496;2023-11-18T11:07:22;101988.34;;;6.02;100.00
69630;BME280;56857;52.212;5.496;2023-11-18T11:09:48;101989.28;;;6.01;100.00
69630;BME280;56857;52.212;5.496;2023-11-18T11:12:13;101982.13;;;6.03;100.00
69630;BME280;56857;52.212;5.496;2023-11-18T11:14:57;101991.69;;;6.04;100.00
69630;BME280;56857;52.212;5.496;2023-11-18T11:17:27;101979.28;;;6.07;100.00
69630;BME280;56857;52.212;5.496;2023-11-18T11:20:06;101959.88;;;6.08;100.00
69630;BME280;56857;52.212;5.496;2023-11-18T11:22:53;101949.34;;;6.08;100.00
69630;BME280;56857;52.212;5.496;2023-11-18T11:25:54;101928.19;;;6.09;100.00
69630;BME280;56857;52.212;5.496;2023-11-18T11:28:21;101919.34;;;6.10;100.00
69630;BME280;56857;52.212;5.496;2023-11-18T11:31:05;101908.81;;;6.10;100.00
69630;BME280;56857;52.212;5.496;2023-11-18T11:33:43;101873.75;;;6.10;100.00
69630;BME280;56857;52.212;5.496;2023-11-18T11:36:21;101850.78;;;6.12;100.00
69630;BME280;56857;52.212;5.496;2023-11-18T11:38:52;101845.16;;;6.16;100.00
69630;BME280;56857;52.212;5.496;2023-11-18T11:41:19;101837.41;;;6.15;100.00
69630;BME280;56857;52.212;5.496;2023-11-18T11:43:48;101849.25;;;6.20;100.00
69630;BME280;56857;52.212;5.496;2023-11-18T11:46:13;101857.97;;;6.21;100.00
69630;BME280;56857;52.212;5.496;2023-11-18T11:48:40;101848.31;;;6.21;100.00
69630;BME280;56857;52.212;5.496;2023-11-18T11:53:35;101831.53;;;6.22;100.00
69630;BME280;56857;52.212;5.496;2023-11-18T11:56:01;101828.69;;;6.25;100.00
69630;BME280;56857;52.212;5.496;2023-11-18T11:58:31;101806.53;;;6.28;100.00
69630;BME280;56857;52.212;5.496;2023-11-18T12:01:00;101813.47;;;6.29;100.00
69630;BME280;56857;52.212;5.496;2023-11-18T12:03:26;101797.69;;;6.29;100.00
69630;BME280;56857;52.212;5.496;2023-11-18T12:05:55;101801.03;;;6.31;100.00
69630;BME280;56857;52.212;5.496;2023-11-18T12:08:22;101785.00;;;6.34;100.00
69630;BME280;56857;52.212;5.496;2023-11-18T12:10:51;101779.59;;;6.36;100.00
69630;BME280;56857;52.212;5.496;2023-11-18T12:13:17;101774.94;;;6.39;100.00
69630;BME280;56857;52.212;5.496;2023-11-18T12:15:48;101764.41;;;6.39;100.00
69630;BME280;56857;52.212;5.496;2023-11-18T12:18:14;101771.00;;;6.45;100.00
69630;BME280;56857;52.212;5.496;2023-11-18T12:20:45;101771.00;;;6.45;100.00
69630;BME280;56857;52.212;5.496;2023-11-18T12:23:10;101771.47;;;6.50;100.00
69630;BME280;56857;52.212;5.496;2023-11-18T12:25:36;101766.91;;;6.52;100.00
69630;BME280;56857;52.212;5.496;2023-11-18T12:28:07;101765.00;;;6.54;100.00
69630;BME280;56857;52.212;5.496;2023-11-18T12:35:25;101702.03;;;6.62;100.00
69630;BME280;56857;52.212;5.496;2023-11-18T12:40:52;101688.72;;;6.64;100.00
69630;BME280;56857;52.212;5.496;2023-11-18T12:46:18;101650.38;;;6.71;100.00
69630;BME280;56857;52.212;5.496;2023-11-18T12:48:51;101659.97;;;6.72;100.00
69630;BME280;56857;52.212;5.496;2023-11-18T12:51:22;101648.78;;;6.80;100.00
69630;BME280;56857;52.212;5.496;2023-11-18T12:53:49;101651.31;;;6.81;100.00
69630;BME280;56857;52.212;5.496;2023-11-18T12:56:16;101653.22;;;6.79;100.00
69630;BME280;56857;52.212;5.496;2023-11-18T12:58:42;101613.44;;;6.82;100.00